createdAt,value
2022-12-06T00:01:50.341Z,30.35
2022-12-06T00:06:54.862Z,29.73
2022-12-06T00:12:00.407Z,29.27
2022-12-06T00:17:06.140Z,27.27
2022-12-06T00:22:10.296Z,27.52
2022-12-06T00:27:14.346Z,28.65
2022-12-06T00:32:20.138Z,24.15
2022-12-06T00:37:24.398Z,25.45
2022-12-06T00:42:28.620Z,24.85
2022-12-06T00:47:34.098Z,24.67
2022-12-06T00:52:38.205Z,23.40
2022-12-06T00:57:42.404Z,21.30
2022-12-06T01:02:48.014Z,22.08
2022-12-06T01:07:52.501Z,23.13
2022-12-06T01:12:56.220Z,23.90
2022-12-06T01:18:01.592Z,23.38
2022-12-06T01:23:05.501Z,19.77
2022-12-06T01:28:09.185Z,18.83
2022-12-06T01:33:14.357Z,17.50
2022-12-06T01:38:18.059Z,19.38
2022-12-06T01:43:35.673Z,18.77
2022-12-06T01:53:47.947Z,18.88
2022-12-06T01:58:54.738Z,18.77
2022-12-06T02:04:03.200Z,16.23
2022-12-06T02:09:10.624Z,14.82
2022-12-06T02:20:02.866Z,15.65
2022-12-06T02:25:43.634Z,13.95
2022-12-06T02:30:55.292Z,15.60
2022-12-06T02:36:08.078Z,16.48
2022-12-06T02:41:20.121Z,14.70
2022-12-06T02:46:29.900Z,14.75
2022-12-06T02:51:36.861Z,14.25
2022-12-06T02:56:40.705Z,15.23
2022-12-06T03:01:51.577Z,11.95
2022-12-06T03:07:29.004Z,13.18
2022-12-06T03:12:42.192Z,12.40
2022-12-06T03:17:54.112Z,16.02
2022-12-06T03:23:06.470Z,20.60
2022-12-06T03:28:14.989Z,13.45
2022-12-06T03:33:24.875Z,12.02
2022-12-06T03:38:34.882Z,14.73
2022-12-06T03:43:38.824Z,10.43
2022-12-06T03:48:49.534Z,13.75
2022-12-06T03:53:56.529Z,14.30
2022-12-06T03:59:00.182Z,10.87
2022-12-06T04:04:06.437Z,10.25
2022-12-06T04:09:27.501Z,11.32
2022-12-06T04:14:39.238Z,10.05
2022-12-06T04:19:49.369Z,12.40
2022-12-06T04:24:55.757Z,14.05
2022-12-06T04:30:16.956Z,11.45
2022-12-06T04:35:39.752Z,11.75
2022-12-06T04:40:43.679Z,9.90
2022-12-06T04:45:47.369Z,11.25
2022-12-06T04:50:52.869Z,10.45
2022-12-06T04:55:56.539Z,12.40
2022-12-06T05:01:00.349Z,10.27
2022-12-06T05:06:06.908Z,11.10
2022-12-06T05:11:10.739Z,10.75
2022-12-06T05:16:14.467Z,11.23
2022-12-06T05:21:23.617Z,9.10
2022-12-06T05:26:30.494Z,8.95
2022-12-06T05:31:34.404Z,10.97
2022-12-06T05:36:39.956Z,9.75
2022-12-06T05:41:44.016Z,8.77
2022-12-06T05:46:47.685Z,8.65
2022-12-06T05:51:52.874Z,8.52
2022-12-06T05:56:56.652Z,7.53
2022-12-06T06:02:00.562Z,9.20
2022-12-06T06:07:05.770Z,8.43
2022-12-06T06:12:12.734Z,7.50
2022-12-06T06:17:17.179Z,9.47
2022-12-06T06:22:25.682Z,7.28
2022-12-06T06:27:29.859Z,7.55
2022-12-06T06:32:33.493Z,8.00
2022-12-06T06:37:38.651Z,6.50
2022-12-06T06:42:42.312Z,8.27
2022-12-06T06:47:46.368Z,7.85
2022-12-06T06:52:51.420Z,8.23
2022-12-06T06:57:55.079Z,7.82
2022-12-06T07:02:58.811Z,8.88
2022-12-06T07:08:04.516Z,7.53
2022-12-06T07:13:08.090Z,7.15
2022-12-06T07:18:11.758Z,6.97
2022-12-06T07:23:17.554Z,7.35
2022-12-06T07:28:21.252Z,7.25
2022-12-06T07:33:25.328Z,6.82
2022-12-06T07:38:30.517Z,6.75
2022-12-06T07:43:51.449Z,6.80
2022-12-06T07:48:55.747Z,6.40
2022-12-06T07:54:01.349Z,7.57
2022-12-06T07:59:05.642Z,6.95
2022-12-06T08:04:09.957Z,6.55
2022-12-06T08:09:15.096Z,6.50
2022-12-06T08:14:18.651Z,5.70
2022-12-06T08:19:22.569Z,8.15
2022-12-06T08:24:27.992Z,6.32
2022-12-06T08:29:31.701Z,10.60
2022-12-06T08:34:35.786Z,10.63
2022-12-06T08:39:41.204Z,16.05
2022-12-06T08:44:45.169Z,17.23
2022-12-06T08:49:50.912Z,14.32
2022-12-06T08:54:56.046Z,13.50
2022-12-06T08:59:59.979Z,13.20
2022-12-06T09:05:04.092Z,13.30
2022-12-06T09:10:11.812Z,12.07
2022-12-06T09:15:15.478Z,11.38
2022-12-06T09:20:19.917Z,16.10
2022-12-06T09:25:25.019Z,9.55
2022-12-06T09:30:29.087Z,9.52
2022-12-06T09:35:32.698Z,8.90
2022-12-06T09:40:49.063Z,9.10
2022-12-06T09:46:28.565Z,12.43
2022-12-06T09:51:57.180Z,10.35
2022-12-06T09:57:09.654Z,15.18
2022-12-06T10:02:51.570Z,11.60
2022-12-06T10:08:11.271Z,11.70
2022-12-06T10:13:27.237Z,9.10
2022-12-06T10:18:51.470Z,11.63
2022-12-06T10:24:13.376Z,11.65
2022-12-06T10:29:29.589Z,11.35
2022-12-06T10:34:51.373Z,12.45
2022-12-06T10:40:01.728Z,10.95
2022-12-06T10:45:41.824Z,29.30
2022-12-06T10:50:47.693Z,41.67
2022-12-06T10:55:57.952Z,45.80
2022-12-06T11:01:08.015Z,32.75
2022-12-06T11:06:18.624Z,29.13
2022-12-06T11:11:34.718Z,24.23
2022-12-06T11:16:46.006Z,23.33
2022-12-06T11:21:56.487Z,22.42
2022-12-06T11:27:09.437Z,25.10
2022-12-06T11:32:17.166Z,21.45
2022-12-06T11:37:23.884Z,17.23
2022-12-06T11:42:29.391Z,19.95
2022-12-06T11:47:34.610Z,17.40
2022-12-06T11:52:47.118Z,19.13
2022-12-06T11:57:57.658Z,16.88
2022-12-06T12:03:02.976Z,15.30
2022-12-06T12:08:17.833Z,16.10
2022-12-06T12:13:41.051Z,13.63
2022-12-06T12:18:57.739Z,15.07
2022-12-06T12:24:02.208Z,17.10
2022-12-06T12:29:20.635Z,14.30
2022-12-06T12:34:30.190Z,29.65
2022-12-06T12:39:40.118Z,15.40
2022-12-06T12:44:47.869Z,12.15
2022-12-06T12:50:05.642Z,13.65
2022-12-06T13:00:26.553Z,14.68
2022-12-06T13:05:40.706Z,11.43
2022-12-06T13:10:58.638Z,11.00
2022-12-06T13:16:10.349Z,10.43
2022-12-06T13:21:26.157Z,10.85
2022-12-06T13:26:35.042Z,8.55
2022-12-06T13:31:41.083Z,9.43
2022-12-06T13:36:46.668Z,10.75
2022-12-06T13:42:16.510Z,9.88
2022-12-06T13:47:56.870Z,8.35
2022-12-06T13:53:07.020Z,9.18
2022-12-06T13:58:54.514Z,6.70
2022-12-06T14:04:01.199Z,6.95
2022-12-06T14:09:12.308Z,6.78
2022-12-06T14:14:18.940Z,7.80
2022-12-06T14:19:33.702Z,7.40
2022-12-06T14:24:42.468Z,8.57
2022-12-06T14:30:05.998Z,7.45
2022-12-06T14:35:17.840Z,7.15
2022-12-06T14:40:50.305Z,7.07
2022-12-06T14:45:56.178Z,6.32
2022-12-06T14:51:03.810Z,8.60
2022-12-06T14:56:24.782Z,6.43
2022-12-06T15:01:31.941Z,7.75
2022-12-06T15:06:38.661Z,7.33
2022-12-06T15:12:02.557Z,6.03
2022-12-06T15:17:17.985Z,7.85
2022-12-06T15:22:25.749Z,6.32
2022-12-06T15:32:35.262Z,6.72
2022-12-06T15:37:40.404Z,7.15
2022-12-06T15:42:47.346Z,5.82
2022-12-06T15:47:52.689Z,6.38
2022-12-06T15:52:56.442Z,6.15
2022-12-06T15:58:01.730Z,7.55
2022-12-06T16:03:08.192Z,6.30
2022-12-06T16:08:12.020Z,5.72
2022-12-06T16:13:23.840Z,5.07
2022-12-06T16:18:27.736Z,7.32
2022-12-06T16:29:20.958Z,6.55
2022-12-06T16:34:25.111Z,5.90
2022-12-06T16:39:31.394Z,4.15
2022-12-06T16:44:51.153Z,5.85
2022-12-06T16:49:55.244Z,5.65
2022-12-06T16:54:59.249Z,7.72
2022-12-06T17:00:06.667Z,4.80
2022-12-06T17:05:17.972Z,8.27
2022-12-06T17:10:22.730Z,4.57
2022-12-06T17:15:28.023Z,4.53
2022-12-06T17:20:31.931Z,5.85
2022-12-06T17:25:36.017Z,5.68
2022-12-06T17:30:45.217Z,6.05
2022-12-06T17:35:52.743Z,4.75
2022-12-06T17:40:56.469Z,4.20
2022-12-06T17:46:09.434Z,6.80
2022-12-06T17:51:13.172Z,6.88
2022-12-06T17:56:33.896Z,5.15
2022-12-06T18:02:12.829Z,7.03
2022-12-06T18:07:03.350Z,7.75
2022-12-06T18:12:09.388Z,6.90
2022-12-06T18:17:14.936Z,7.38
2022-12-06T18:22:19.666Z,10.07
2022-12-06T18:27:23.495Z,8.93
2022-12-06T18:32:29.390Z,7.50
2022-12-06T18:37:33.343Z,7.65
2022-12-06T18:42:38.501Z,10.23
2022-12-06T18:47:44.867Z,8.32
2022-12-06T18:52:48.713Z,8.30
2022-12-06T18:57:52.515Z,6.97
2022-12-06T19:02:57.684Z,7.63
2022-12-06T19:08:01.788Z,8.23
2022-12-06T19:13:06.057Z,13.85
2022-12-06T19:18:13.615Z,14.77
2022-12-06T19:23:17.308Z,13.63
2022-12-06T19:28:20.871Z,10.20
2022-12-06T19:33:26.515Z,9.13
2022-12-06T19:38:31.345Z,13.25
2022-12-06T19:43:52.861Z,7.85
2022-12-06T19:49:02.783Z,11.15
2022-12-06T19:54:07.899Z,8.48
2022-12-06T19:59:12.646Z,11.30
2022-12-06T20:04:22.768Z,7.97
2022-12-06T20:09:30.904Z,8.88
2022-12-06T20:14:42.084Z,10.70
2022-12-06T20:19:49.027Z,8.77
2022-12-06T20:24:52.780Z,8.40
2022-12-06T20:29:56.541Z,10.07
2022-12-06T20:35:01.877Z,9.40
2022-12-06T20:40:08.521Z,9.98
2022-12-06T20:45:12.642Z,8.85
2022-12-06T20:50:18.133Z,10.50
2022-12-06T20:55:21.861Z,12.63
2022-12-06T21:00:25.959Z,9.32
2022-12-06T21:05:31.096Z,11.75
2022-12-06T21:10:48.968Z,11.50
2022-12-06T21:16:04.621Z,12.57
2022-12-06T21:21:10.969Z,10.48
2022-12-06T21:26:15.123Z,9.25
2022-12-06T21:31:18.920Z,9.30
2022-12-06T21:36:24.389Z,9.35
2022-12-06T21:41:28.425Z,9.85
2022-12-06T21:46:32.307Z,11.32
2022-12-06T21:51:37.501Z,9.82
2022-12-06T21:56:42.522Z,12.82
2022-12-06T22:01:46.697Z,9.48
2022-12-06T22:06:52.434Z,8.80
2022-12-06T22:11:56.469Z,8.93
2022-12-06T22:17:00.238Z,8.93
2022-12-06T22:22:05.472Z,8.73
2022-12-06T22:27:09.443Z,10.63
2022-12-06T22:32:13.186Z,8.18
2022-12-06T22:37:18.299Z,10.20
2022-12-06T22:42:22.134Z,8.88
2022-12-06T22:47:25.793Z,9.90
2022-12-06T22:52:31.207Z,8.18
2022-12-06T22:57:34.952Z,9.20
2022-12-06T23:02:38.839Z,8.02
2022-12-06T23:07:44.145Z,8.55
2022-12-06T23:12:47.796Z,11.70
2022-12-06T23:17:51.796Z,9.50
2022-12-06T23:22:56.847Z,11.57
2022-12-06T23:28:00.528Z,11.38
2022-12-06T23:33:04.589Z,10.10
2022-12-06T23:38:09.750Z,12.15
2022-12-06T23:43:13.402Z,10.38
2022-12-06T23:48:17.103Z,13.88
2022-12-06T23:53:22.270Z,11.35
2022-12-06T23:58:26.052Z,9.27
